الصفحة الرئيسية
METAR-TAF:

METAR-TAF

مطار :

كلاغنفورت, النمسا

دائرة عرض: 46-39N, خط طول: 014-20E, ارتفاع: 448 متر

مراقبة الطقس الحالي

تاريخ ووقت الإصدار 24 دقيقة قبل الساعة 20:50UTC
ريح 2 عقدةمن اتجاهات متغيرة
درجة الحرارة 13°درجة مئوية
الرطوبة 51%
ضغط 1022 hPa
الرؤية 10 كم أو أكثر
غيوم قليلة على ارتفاع 5000 قدم
غيوم متفرقة على ارتفاع 6000 قدم

METAR: LOWK 292050Z AUTO VRB02KT 9999 FEW050 SCT060 13/03 Q1022

زمن: 23:14 (21:14 UTC)

توقعات

تاريخ ووقت الإصدار 3ساعات و 59 دقيقة قبل الساعة 17:15UTC
التوقعات صالحة من29 الساعة 18 UTC إلى 30 الساعة 18 UTC
ريح 5 عقدةمن اتجاهات متغيرة
الرؤية 10 كم أو أكثر
غيوم متفرقة على ارتفاع 7000 قدم
مؤقت
من 30 الساعة 11 UTC إلى 30 الساعة 16 UTC
ريح 8 عقدة من الشرق/الشمال الشرقي

TAF: LOWK 291715Z 2918/3018 VRB05KT 9999 SCT070 TX17/3013Z TN09/3004Z TEMPO 3011/3016 07008KT

أرصاد الطقس والتوقعات من أكثر من 4000 مطار (تقارير الطقس للمطار METAR والتنبؤ بالطقس بالمطارTAF).

المحطات المتاحة هي النقط الصفراء والحمراء على الخريطة.

حرك المؤشر فوق النقطة لمعرفة اسم المحطة.

ثم انقر لمعرفة أرصاد وتوقعات الطقس.

لتغيير الخارطة: اضغط على الأزرار الخضراء مع رمز الصليب الأسود للتكبير. على الزر الأخضر مع شرطة للتصغير، أو على الأسهم الخضراء للخرائط المجاورة.


METAR-TAF: